KSNA

Santa Ana

Airport
ICAO code
KSNA
Summary
ICAO Region
NAM
ICAO Territory
Location

Santa Ana, California,

Coordinates
33° 40' 28" N , 117° 52' 10" W
KCC
Csa
Metar
Observation
KSNA 120153Z 23006KT 10SM FEW025 FEW250 26/14 A2991 RMK AO2 SLP125 T02610139 $
Station
Santa Ana, John Wayne Airport-Orange County Airport
Date/Time
2022-08-12 01:53:00
Wind direction
230°
Wind speed
06 kts
Lowest cloud amount
few clouds
Temperature
26.1°C
Dew point
13.9°C
Humidity
47%
Weather condition
n/a

Description

Santa Maria Public Airport, also known as the Capt. G. Allan Hancock Field, is an airport located 5 km south of the central business district of Santa Maria, a city in northern Santa Barbara County, California.

Climatology

Warm Mediterranean climate (Köppen climate classification Csb). Because of the airport's proximity to the ocean, onshore breezes significantly moderate temperatures, resulting in warmer winters and cooler summers compared with places farther inland.

Runways

Designator Length Width Surface Rops
01R/19L 880 23 ASP Yes/Yes
01L/19R 1737 46 ASP Yes/Yes

Airport map

Aerial View

SKYbrary Partners:

Safety knowledge contributed by: